createdAt,value
2019-03-28T00:02:12.391Z,12.20
2019-03-28T00:04:52.602Z,12.13
2019-03-28T00:07:32.685Z,13.43
2019-03-28T00:10:12.816Z,12.03
2019-03-28T00:12:52.868Z,12.77
2019-03-28T00:15:33.241Z,12.63
2019-03-28T00:18:13.805Z,13.77
2019-03-28T00:20:53.666Z,12.83
2019-03-28T00:23:38.828Z,13.23
2019-03-28T00:26:29.346Z,13.23
2019-03-28T00:29:00.863Z,13.27
2019-03-28T00:31:40.771Z,13.23
2019-03-28T00:34:21.014Z,13.40
2019-03-28T00:37:00.989Z,13.10
2019-03-28T00:39:41.065Z,13.93
2019-03-28T00:42:20.883Z,13.50
2019-03-28T00:45:00.833Z,12.80
2019-03-28T00:47:41.048Z,13.30
2019-03-28T00:50:21.252Z,12.23
2019-03-28T00:53:01.286Z,14.03
2019-03-28T00:55:41.161Z,14.43
2019-03-28T00:58:21.307Z,13.77
2019-03-28T01:01:01.332Z,13.23
2019-03-28T01:03:41.353Z,13.50
2019-03-28T01:06:21.255Z,13.67
2019-03-28T01:09:04.112Z,12.80
2019-03-28T01:11:43.276Z,13.63
2019-03-28T01:14:23.485Z,13.73
2019-03-28T01:17:03.331Z,13.30
2019-03-28T01:19:43.301Z,13.97
2019-03-28T01:22:23.253Z,13.30
2019-03-28T01:25:03.423Z,14.97
2019-03-28T01:27:43.552Z,13.60
2019-03-28T01:30:23.690Z,13.73
2019-03-28T01:33:03.887Z,12.70
2019-03-28T01:35:43.820Z,14.50
2019-03-28T01:38:23.885Z,14.67
2019-03-28T01:41:04.127Z,14.13
2019-03-28T01:43:44.338Z,13.43
2019-03-28T01:46:24.144Z,13.17
2019-03-28T01:49:04.046Z,14.13
2019-03-28T01:51:44.210Z,14.93
2019-03-28T01:54:24.195Z,14.93
2019-03-28T01:57:10.932Z,14.57
2019-03-28T01:59:46.364Z,14.33
2019-03-28T02:02:26.208Z,15.00
2019-03-28T02:05:06.257Z,14.80
2019-03-28T02:07:46.523Z,16.13
2019-03-28T02:10:26.424Z,15.63
2019-03-28T02:13:06.398Z,15.60
2019-03-28T02:15:46.581Z,14.30
2019-03-28T02:18:26.833Z,14.33
2019-03-28T02:21:09.528Z,14.43
2019-03-28T02:23:48.986Z,13.87
2019-03-28T02:26:28.967Z,15.60
2019-03-28T02:29:09.264Z,14.50
2019-03-28T02:31:49.452Z,15.40
2019-03-28T02:34:29.531Z,14.37
2019-03-28T02:37:09.262Z,14.67
2019-03-28T02:39:50.669Z,14.60
2019-03-28T02:42:31.389Z,15.07
2019-03-28T02:45:11.612Z,15.30
2019-03-28T02:47:51.611Z,13.97
2019-03-28T02:50:31.733Z,15.03
2019-03-28T02:53:11.852Z,13.40
2019-03-28T02:55:51.818Z,13.50
2019-03-28T02:58:32.026Z,14.83
2019-03-28T03:01:12.202Z,13.83
2019-03-28T03:03:52.162Z,14.03
2019-03-28T03:06:32.056Z,14.10
2019-03-28T03:09:12.077Z,15.70
2019-03-28T03:11:52.102Z,14.07
2019-03-28T03:14:31.794Z,15.00
2019-03-28T03:17:12.079Z,14.87
2019-03-28T03:19:52.066Z,13.93
2019-03-28T03:22:32.194Z,15.13
2019-03-28T03:25:12.208Z,14.13
2019-03-28T03:27:58.406Z,13.07
2019-03-28T03:30:34.291Z,12.83
2019-03-28T03:33:14.391Z,12.67
2019-03-28T03:35:54.793Z,12.53
2019-03-28T03:38:34.935Z,13.87
2019-03-28T03:41:14.743Z,12.47
2019-03-28T03:43:54.808Z,12.57
2019-03-28T03:46:34.800Z,13.00
2019-03-28T03:49:14.804Z,12.40
2019-03-28T03:51:54.901Z,12.37
2019-03-28T03:54:34.972Z,12.73
2019-03-28T03:57:15.015Z,10.60
2019-03-28T03:59:54.883Z,11.77
2019-03-28T04:02:34.838Z,12.63
2019-03-28T04:05:14.857Z,12.97
2019-03-28T04:07:54.857Z,13.30
2019-03-28T04:10:34.944Z,13.77
2019-03-28T04:13:14.918Z,12.23
2019-03-28T04:15:54.892Z,13.93
2019-03-28T04:18:34.761Z,13.47
2019-03-28T04:21:14.939Z,13.50
2019-03-28T04:23:55.788Z,14.03
2019-03-28T04:26:36.239Z,15.37
2019-03-28T04:29:16.538Z,14.03
2019-03-28T04:31:56.770Z,13.27
2019-03-28T04:34:37.026Z,14.33
2019-03-28T04:37:17.375Z,14.00
2019-03-28T04:39:57.468Z,14.67
2019-03-28T04:42:37.521Z,12.63
2019-03-28T04:45:17.595Z,12.50
2019-03-28T04:47:57.608Z,12.27
2019-03-28T04:50:37.551Z,13.33
2019-03-28T04:53:17.573Z,13.40
2019-03-28T04:55:57.699Z,13.23
2019-03-28T04:58:44.323Z,12.20
2019-03-28T05:01:19.633Z,13.60
2019-03-28T05:03:59.754Z,14.13
2019-03-28T05:06:39.879Z,12.50
2019-03-28T05:09:19.886Z,13.70
2019-03-28T05:11:59.917Z,13.67
2019-03-28T05:14:40.366Z,13.40
2019-03-28T05:17:20.626Z,12.57
2019-03-28T05:20:00.656Z,12.87
2019-03-28T05:22:40.738Z,14.87
2019-03-28T05:25:20.576Z,13.93
2019-03-28T05:28:00.689Z,14.13
2019-03-28T05:30:40.915Z,14.00
2019-03-28T05:33:20.979Z,13.60
2019-03-28T05:36:04.244Z,14.20
2019-03-28T05:38:43.250Z,12.60
2019-03-28T05:41:23.208Z,13.93
2019-03-28T05:44:03.312Z,13.70
2019-03-28T05:46:43.340Z,11.80
2019-03-28T05:49:23.551Z,13.70
2019-03-28T05:52:03.576Z,12.47
2019-03-28T05:54:43.633Z,11.37
2019-03-28T05:57:23.415Z,12.83
2019-03-28T06:00:03.831Z,12.23
2019-03-28T06:02:43.723Z,12.47
2019-03-28T06:05:23.705Z,11.43
2019-03-28T06:08:04.039Z,12.83
2019-03-28T06:10:44.178Z,12.80
2019-03-28T06:13:24.285Z,12.60
2019-03-28T06:16:04.262Z,12.07
2019-03-28T06:18:44.434Z,12.67
2019-03-28T06:21:24.321Z,13.43
2019-03-28T06:24:04.246Z,12.03
2019-03-28T06:26:44.393Z,12.83
2019-03-28T06:29:25.327Z,12.03
2019-03-28T06:32:05.697Z,12.20
2019-03-28T06:34:45.901Z,12.50
2019-03-28T06:37:26.157Z,12.93
2019-03-28T06:40:06.176Z,12.20
2019-03-28T06:42:46.354Z,12.13
2019-03-28T06:45:26.442Z,12.93
2019-03-28T06:48:06.466Z,11.77
2019-03-28T06:50:46.832Z,10.87
2019-03-28T06:53:26.793Z,12.17
2019-03-28T06:56:07.021Z,11.37
2019-03-28T06:58:46.901Z,11.10
2019-03-28T07:01:27.113Z,10.77
2019-03-28T07:04:07.125Z,10.80
2019-03-28T07:06:47.219Z,12.20
2019-03-28T07:09:27.377Z,11.57
2019-03-28T07:12:07.417Z,12.40
2019-03-28T07:14:47.517Z,12.70
2019-03-28T07:17:27.548Z,12.40
2019-03-28T07:20:09.216Z,12.87
2019-03-28T07:22:49.783Z,12.63
2019-03-28T07:25:30.009Z,12.87
2019-03-28T07:28:10.049Z,13.50
2019-03-28T07:30:49.921Z,11.93
2019-03-28T07:33:30.202Z,12.10
2019-03-28T07:36:09.964Z,12.60
2019-03-28T07:38:50.383Z,12.80
2019-03-28T07:41:30.368Z,12.33
2019-03-28T07:44:10.445Z,11.37
2019-03-28T07:46:50.593Z,11.00
2019-03-28T07:49:30.633Z,11.73
2019-03-28T07:52:10.737Z,12.10
2019-03-28T07:54:50.644Z,11.40
2019-03-28T07:57:30.727Z,12.87
2019-03-28T08:00:10.793Z,12.23
2019-03-28T08:02:50.691Z,11.60
2019-03-28T08:05:30.780Z,10.30
2019-03-28T08:08:10.710Z,12.50
2019-03-28T08:10:50.593Z,10.83
2019-03-28T08:13:30.708Z,10.83
2019-03-28T08:16:10.518Z,10.97
2019-03-28T08:18:50.749Z,10.83
2019-03-28T08:21:30.937Z,10.57
2019-03-28T08:24:10.885Z,9.73
2019-03-28T08:26:50.967Z,9.73
2019-03-28T08:29:31.100Z,9.53
2019-03-28T08:32:14.574Z,8.63
2019-03-28T08:34:54.211Z,9.60
2019-03-28T08:37:34.189Z,8.60
2019-03-28T08:40:14.219Z,8.17
2019-03-28T08:42:54.189Z,8.80
2019-03-28T08:45:34.633Z,7.40
2019-03-28T08:48:14.351Z,8.20
2019-03-28T08:50:54.261Z,7.63
2019-03-28T08:53:34.246Z,7.10
2019-03-28T08:56:14.346Z,8.30
2019-03-28T08:58:54.193Z,8.77
2019-03-28T09:01:34.067Z,8.47
2019-03-28T09:04:13.826Z,7.77
2019-03-28T09:06:54.078Z,7.80
2019-03-28T09:09:33.992Z,8.40
2019-03-28T09:12:14.112Z,7.83
2019-03-28T09:14:54.026Z,7.77
2019-03-28T09:17:34.254Z,8.13
2019-03-28T09:20:14.213Z,8.40
2019-03-28T09:22:54.012Z,8.07
2019-03-28T09:25:34.156Z,8.67
2019-03-28T09:28:14.115Z,8.97
2019-03-28T09:30:53.980Z,8.33
2019-03-28T09:33:33.848Z,8.40
2019-03-28T09:36:13.853Z,6.73
2019-03-28T09:38:54.091Z,7.33
2019-03-28T09:41:34.297Z,7.30
2019-03-28T09:44:14.583Z,6.70
2019-03-28T09:46:54.411Z,7.17
2019-03-28T09:49:34.688Z,7.73
2019-03-28T09:52:14.767Z,7.40
2019-03-28T09:54:54.764Z,7.43
2019-03-28T09:57:35.189Z,6.60
2019-03-28T10:00:15.388Z,6.27
2019-03-28T10:02:55.946Z,6.20
2019-03-28T10:05:38.017Z,7.10
2019-03-28T10:08:18.409Z,6.37
2019-03-28T10:10:58.310Z,5.63
2019-03-28T10:13:38.102Z,5.60
2019-03-28T10:16:18.173Z,6.13
2019-03-28T10:18:58.241Z,5.73
2019-03-28T10:21:38.392Z,6.07
2019-03-28T10:24:18.233Z,6.37
2019-03-28T10:26:58.375Z,5.87
2019-03-28T10:29:38.355Z,4.43
2019-03-28T10:32:18.544Z,5.20
2019-03-28T10:34:58.513Z,5.10
2019-03-28T10:37:38.492Z,4.83
2019-03-28T10:40:18.603Z,5.17
2019-03-28T10:42:58.577Z,5.43
2019-03-28T10:45:38.789Z,5.23
2019-03-28T10:48:19.485Z,4.83
2019-03-28T10:50:59.705Z,4.50
2019-03-28T10:53:39.731Z,4.90
2019-03-28T10:56:22.271Z,5.37
2019-03-28T10:59:01.975Z,3.80
2019-03-28T11:01:49.970Z,3.80
2019-03-28T11:04:24.176Z,4.13
2019-03-28T11:07:04.584Z,3.47
2019-03-28T11:09:44.768Z,3.50
2019-03-28T11:12:24.916Z,4.03
2019-03-28T11:15:05.025Z,3.73
2019-03-28T11:17:44.940Z,4.43
2019-03-28T11:20:25.201Z,2.37
2019-03-28T11:23:05.344Z,2.77
2019-03-28T11:25:45.337Z,3.40
2019-03-28T11:28:25.578Z,4.17
2019-03-28T11:31:05.652Z,3.53
2019-03-28T11:33:45.797Z,3.50
2019-03-28T11:36:25.968Z,3.03
2019-03-28T11:39:06.119Z,2.90
2019-03-28T11:41:45.998Z,2.70
2019-03-28T11:44:26.024Z,3.37
2019-03-28T11:47:05.941Z,4.57
2019-03-28T11:49:46.102Z,3.67
2019-03-28T11:52:25.973Z,4.17
2019-03-28T11:55:06.078Z,3.70
2019-03-28T11:57:46.218Z,4.17
2019-03-28T12:00:26.230Z,3.80
2019-03-28T12:03:06.442Z,3.17
2019-03-28T12:05:46.520Z,3.57
2019-03-28T12:08:26.433Z,3.30
2019-03-28T12:11:06.316Z,3.83
2019-03-28T12:13:46.294Z,3.97
2019-03-28T12:16:26.469Z,4.43
2019-03-28T12:19:06.447Z,4.43
2019-03-28T12:21:46.581Z,5.10
2019-03-28T12:24:26.695Z,4.00
2019-03-28T12:27:06.929Z,4.43
2019-03-28T12:29:46.923Z,4.90
2019-03-28T12:32:26.933Z,4.93
2019-03-28T12:35:07.066Z,4.10
2019-03-28T12:37:47.049Z,4.60
2019-03-28T12:40:27.059Z,4.33
2019-03-28T12:43:06.828Z,4.60
2019-03-28T12:45:46.908Z,4.23
2019-03-28T12:48:26.976Z,4.27
2019-03-28T12:51:06.959Z,4.43
2019-03-28T12:53:47.337Z,4.47
2019-03-28T12:56:27.397Z,4.67
2019-03-28T12:59:07.395Z,4.30
2019-03-28T13:01:47.317Z,4.43
2019-03-28T13:04:27.282Z,4.47
2019-03-28T13:07:07.188Z,4.63
2019-03-28T13:09:47.331Z,4.87
2019-03-28T13:12:27.303Z,4.57
2019-03-28T13:15:07.301Z,4.70
2019-03-28T13:17:47.410Z,3.93
2019-03-28T13:20:27.438Z,4.40
2019-03-28T13:23:07.307Z,4.63
2019-03-28T13:25:47.335Z,4.70
2019-03-28T13:28:27.209Z,4.47
2019-03-28T13:31:07.314Z,4.23
2019-03-28T13:33:47.201Z,4.67
2019-03-28T13:36:27.187Z,4.90
2019-03-28T13:39:07.294Z,4.13
2019-03-28T13:41:47.217Z,4.50
2019-03-28T13:44:30.107Z,4.33
2019-03-28T13:47:09.195Z,3.63
2019-03-28T13:49:49.105Z,3.27
2019-03-28T13:52:29.145Z,3.47
2019-03-28T13:55:09.200Z,3.60
2019-03-28T13:57:52.017Z,4.30
2019-03-28T14:00:31.033Z,3.60
2019-03-28T14:03:11.064Z,3.93
2019-03-28T14:05:51.128Z,4.00
2019-03-28T14:08:31.214Z,3.70
2019-03-28T14:11:11.292Z,3.83
2019-03-28T14:13:51.273Z,3.73
2019-03-28T14:16:31.316Z,3.80
2019-03-28T14:19:11.290Z,3.33
2019-03-28T14:21:51.356Z,3.70
2019-03-28T14:24:31.267Z,3.80
2019-03-28T14:27:11.375Z,3.67
2019-03-28T14:29:51.491Z,4.50
2019-03-28T14:32:33.095Z,4.70
2019-03-28T14:35:13.716Z,4.43
2019-03-28T14:37:53.815Z,5.17
2019-03-28T14:40:34.245Z,4.33
2019-03-28T14:43:14.259Z,4.67
2019-03-28T14:45:54.335Z,4.33
2019-03-28T14:48:34.284Z,4.73
2019-03-28T14:51:14.327Z,4.00
2019-03-28T14:53:55.785Z,4.43
2019-03-28T14:56:36.305Z,4.30
2019-03-28T14:59:16.174Z,4.27
2019-03-28T15:01:56.080Z,3.87
2019-03-28T15:04:36.150Z,3.77
2019-03-28T15:07:16.051Z,3.53
2019-03-28T15:09:56.351Z,3.20
2019-03-28T15:12:36.293Z,3.87
2019-03-28T15:15:16.387Z,3.97
2019-03-28T15:17:56.414Z,4.53
2019-03-28T15:20:36.523Z,4.17
2019-03-28T15:23:16.368Z,4.23
2019-03-28T15:25:56.341Z,3.73
2019-03-28T15:28:36.627Z,4.47
2019-03-28T15:31:16.736Z,4.60
2019-03-28T15:33:56.984Z,3.97
2019-03-28T15:36:37.115Z,3.87
2019-03-28T15:39:17.142Z,4.87
2019-03-28T15:41:56.778Z,4.47
2019-03-28T15:44:39.422Z,4.40
2019-03-28T15:47:18.920Z,4.40
2019-03-28T15:49:58.561Z,4.50
2019-03-28T15:52:38.662Z,4.80
2019-03-28T15:55:18.563Z,4.10
2019-03-28T15:57:58.254Z,3.93
2019-03-28T16:00:38.212Z,5.13
2019-03-28T16:03:18.150Z,4.77
2019-03-28T16:05:58.861Z,4.23
2019-03-28T16:08:39.391Z,4.37
2019-03-28T16:11:19.378Z,4.80
2019-03-28T16:13:59.463Z,5.10
2019-03-28T16:16:39.511Z,4.60
2019-03-28T16:19:19.509Z,4.50
2019-03-28T16:21:59.769Z,4.83
2019-03-28T16:24:46.521Z,4.10
2019-03-28T16:27:26.092Z,5.10
2019-03-28T16:30:06.256Z,4.63
2019-03-28T16:32:45.961Z,5.33
2019-03-28T16:35:26.092Z,5.17
2019-03-28T16:38:06.391Z,4.97
2019-03-28T16:40:46.396Z,5.10
2019-03-28T16:43:26.380Z,5.30
2019-03-28T16:46:07.758Z,4.47
2019-03-28T16:48:48.488Z,4.90
2019-03-28T16:51:28.089Z,5.17
2019-03-28T16:54:08.082Z,4.83
2019-03-28T16:56:47.837Z,5.07
2019-03-28T16:59:27.802Z,4.63
2019-03-28T17:02:07.730Z,5.40
2019-03-28T17:04:47.583Z,6.47
2019-03-28T17:07:27.598Z,4.77
2019-03-28T17:10:07.709Z,5.40
2019-03-28T17:12:47.774Z,5.23
2019-03-28T17:15:27.827Z,5.03
2019-03-28T17:18:07.943Z,4.57
2019-03-28T17:20:47.855Z,5.50
2019-03-28T17:23:27.899Z,4.97
2019-03-28T17:26:08.499Z,5.40
2019-03-28T17:28:48.834Z,5.20
2019-03-28T17:31:29.104Z,5.43
2019-03-28T17:34:08.979Z,5.27
2019-03-28T17:36:48.900Z,5.20
2019-03-28T17:39:28.845Z,5.80
2019-03-28T17:42:08.888Z,6.93
2019-03-28T17:44:48.947Z,6.27
2019-03-28T17:47:28.836Z,6.90
2019-03-28T17:50:08.876Z,6.67
2019-03-28T17:52:48.912Z,7.80
2019-03-28T17:55:29.770Z,7.13
2019-03-28T17:58:10.098Z,7.67
2019-03-28T18:00:50.159Z,7.23
2019-03-28T18:03:31.595Z,6.87
2019-03-28T18:06:12.167Z,7.33
2019-03-28T18:08:52.337Z,7.87
2019-03-28T18:11:32.517Z,6.80
2019-03-28T18:14:12.436Z,6.73
2019-03-28T18:16:52.759Z,6.43
2019-03-28T18:19:32.676Z,6.43
2019-03-28T18:22:12.294Z,6.10
2019-03-28T18:24:52.296Z,5.80
2019-03-28T18:27:32.367Z,6.57
2019-03-28T18:30:12.216Z,6.43
2019-03-28T18:32:52.343Z,6.37
2019-03-28T18:35:32.368Z,5.90
2019-03-28T18:38:12.267Z,6.13
2019-03-28T18:40:52.017Z,6.17
2019-03-28T18:43:32.095Z,6.80
2019-03-28T18:46:14.620Z,6.43
2019-03-28T18:48:54.100Z,6.40
2019-03-28T18:51:34.040Z,6.43
2019-03-28T18:54:14.159Z,6.40
2019-03-28T18:56:56.547Z,6.70
2019-03-28T18:59:37.203Z,7.43
2019-03-28T19:02:17.113Z,7.87
2019-03-28T19:04:57.276Z,7.13
2019-03-28T19:07:37.061Z,7.07
2019-03-28T19:10:17.249Z,7.30
2019-03-28T19:12:57.385Z,7.77
2019-03-28T19:15:37.422Z,7.50
2019-03-28T19:18:17.556Z,6.13
2019-03-28T19:20:57.552Z,6.33
2019-03-28T19:23:37.464Z,6.17
2019-03-28T19:26:17.788Z,6.30
2019-03-28T19:28:57.729Z,6.03
2019-03-28T19:31:37.849Z,6.80
2019-03-28T19:34:17.808Z,7.40
2019-03-28T19:36:57.802Z,6.53
2019-03-28T19:39:37.669Z,6.77
2019-03-28T19:42:18.070Z,6.27
2019-03-28T19:44:58.916Z,7.50
2019-03-28T19:47:38.901Z,6.17
2019-03-28T19:50:19.136Z,7.43
2019-03-28T19:52:59.275Z,7.93
2019-03-28T19:55:40.060Z,7.97
2019-03-28T19:58:20.358Z,7.83
2019-03-28T20:01:00.111Z,8.07
2019-03-28T20:03:40.168Z,8.40
2019-03-28T20:06:22.300Z,8.37
2019-03-28T20:09:15.411Z,8.50
2019-03-28T20:11:43.977Z,8.70
2019-03-28T20:14:24.037Z,8.90
2019-03-28T20:17:04.091Z,10.90
2019-03-28T20:19:44.015Z,10.13
2019-03-28T20:22:23.992Z,9.53
2019-03-28T20:25:04.021Z,10.07
2019-03-28T20:27:43.669Z,11.07
2019-03-28T20:30:23.761Z,10.97
2019-03-28T20:33:04.295Z,8.37
2019-03-28T20:35:44.032Z,9.13
2019-03-28T20:38:23.844Z,8.77
2019-03-28T20:41:04.989Z,8.13
2019-03-28T20:43:45.063Z,9.27
2019-03-28T20:46:25.100Z,10.10
2019-03-28T20:49:05.029Z,9.73
2019-03-28T20:51:44.875Z,8.83
2019-03-28T20:54:25.041Z,9.03
2019-03-28T20:57:05.414Z,9.73
2019-03-28T20:59:46.840Z,10.23
2019-03-28T21:02:27.483Z,9.30
2019-03-28T21:05:07.410Z,9.30
2019-03-28T21:07:47.435Z,8.87
2019-03-28T21:10:27.643Z,7.83
2019-03-28T21:13:07.647Z,8.43
2019-03-28T21:15:47.849Z,9.47
2019-03-28T21:18:27.835Z,9.97
2019-03-28T21:21:07.783Z,9.40
2019-03-28T21:23:47.717Z,9.93
2019-03-28T21:26:27.780Z,10.03
2019-03-28T21:29:07.696Z,11.30
2019-03-28T21:31:50.067Z,10.13
2019-03-28T21:34:29.687Z,10.63
2019-03-28T21:37:10.500Z,9.33
2019-03-28T21:39:50.572Z,9.67
2019-03-28T21:42:30.475Z,10.70
2019-03-28T21:45:10.426Z,7.90
2019-03-28T21:47:50.950Z,8.77
2019-03-28T21:50:31.695Z,9.43
2019-03-28T21:53:11.688Z,10.13
2019-03-28T21:55:55.473Z,9.00
2019-03-28T21:58:33.748Z,9.93
2019-03-28T22:01:13.764Z,9.33
2019-03-28T22:03:54.139Z,9.00
2019-03-28T22:06:42.926Z,9.70
2019-03-28T22:09:16.011Z,10.03
2019-03-28T22:11:55.936Z,8.60
2019-03-28T22:14:36.047Z,9.20
2019-03-28T22:17:16.153Z,7.30
2019-03-28T22:19:56.070Z,8.77
2019-03-28T22:22:35.907Z,9.13
2019-03-28T22:25:15.960Z,8.77
2019-03-28T22:27:55.971Z,8.47
2019-03-28T22:30:35.963Z,9.03
2019-03-28T22:33:15.898Z,9.37
2019-03-28T22:35:56.124Z,9.40
2019-03-28T22:38:36.074Z,8.77
2019-03-28T22:41:16.051Z,9.53
2019-03-28T22:43:55.762Z,9.10
2019-03-28T22:46:39.285Z,10.63
2019-03-28T22:49:17.786Z,10.47
2019-03-28T22:51:57.772Z,11.10
2019-03-28T22:54:37.753Z,11.57
2019-03-28T22:57:17.712Z,11.83
2019-03-28T22:59:57.655Z,10.90
2019-03-28T23:02:37.688Z,11.17
2019-03-28T23:05:17.631Z,10.30
2019-03-28T23:07:57.433Z,9.50
2019-03-28T23:10:37.664Z,9.70
2019-03-28T23:13:17.704Z,9.67
2019-03-28T23:15:57.628Z,8.30
2019-03-28T23:18:37.285Z,8.90
2019-03-28T23:21:17.555Z,8.67
2019-03-28T23:23:57.415Z,8.77
2019-03-28T23:26:37.300Z,8.87
2019-03-28T23:29:17.152Z,8.37
2019-03-28T23:31:57.219Z,8.83
2019-03-28T23:34:37.395Z,9.40
2019-03-28T23:37:24.793Z,9.63
2019-03-28T23:39:59.449Z,10.40
2019-03-28T23:42:39.446Z,9.33
2019-03-28T23:45:19.796Z,9.53
2019-03-28T23:48:00.310Z,9.80
2019-03-28T23:50:40.415Z,8.67
2019-03-28T23:53:20.438Z,8.57
2019-03-28T23:56:00.437Z,8.93
2019-03-28T23:58:40.440Z,8.27
